Morris, MN

9:44 AM CDT on June 28, 2017 (GMT -0500)
Morris Municipal

Weather History for KMOX - June, 2013

Change the Weather History Date:

Thursday, June 6, 2013

  Actual Average Record
Temperature  
Mean Temperature 56 °F -  
Max Temperature 62 °F 71 °F 93 °F (2011)
Min Temperature 50 °F 51 °F 39 °F (1998)
Degree Days  
Heating Degree Days 9    
Growing Degree Days 6 (Base 50)    
Moisture  
Dew Point 49 °F    
Average Humidity 79    
Maximum Humidity 94    
Minimum Humidity 59    
Precipitation  
Precipitation 0.00 in - - ()
Sea Level Pressure  
Sea Level Pressure 30.03 in    
Wind  
Wind Speed 7 mph (NE)    
Max Wind Speed 13 mph    
Max Gust Speed -    
Visibility 10 miles    
Events      
Averages and records for this station are not official NWS values.
T = Trace of Precipitation, MM = Missing Value Source: NWS Daily Summary

Daily Weather History Graph

Daily Weather History Graph

Search for Another Location

Airport or City:

Trip Planner

Search our weather history database for the weather conditions in past years. The results will help you decide how hot, cold, wet, or windy it might be!

Date:

Astronomy

Jun. 06, 2013 Rise Set
Actual Time 5:35 AM CDT 9:09 PM CDT
Civil Twilight 4:58 AM CDT 9:47 PM CDT
Nautical Twilight 4:08 AM CDT 10:37 PM CDT
Astronomical Twilight 3:03 AM CDT 11:42 PM CDT
Moon 4:23 AM CDT (6/6) 7:28 PM CDT (6/6)
Length of Visible Light 16h 48m
Length of Day
15h 33m
Waning Crescent, 3% of the Moon is Illuminated
Jun 6
Waning Crescent
Jun 8
New
Jun 16
First Quarter
Jun 23
Full
Jun 29
Last Quarter

Hourly Weather History & Observations

Time (CDT) Temp. Dew Point Humidity Pressure Visibility Wind Dir Wind Speed Gust Speed Precip Events Conditions
12:11 AM 55.4 °F 51.8 °F 88% 30.01 in 10.0 mi NE 8.1 mph - N/A   Overcast
12:31 AM 53.6 °F 51.8 °F 94% 30.02 in 10.0 mi NE 3.5 mph - N/A   Overcast
12:51 AM 55.4 °F 50.0 °F 82% 30.02 in 10.0 mi NE 4.6 mph - N/A   Overcast
1:11 AM 55.4 °F 51.8 °F 88% 30.01 in 10.0 mi NE 6.9 mph - N/A   Overcast
1:31 AM 55.4 °F 50.0 °F 82% 30.01 in 10.0 mi NE 10.4 mph - N/A   Overcast
1:51 AM 53.6 °F 50.0 °F 88% 30.02 in 10.0 mi NE 8.1 mph - N/A   Overcast
2:11 AM 53.6 °F 50.0 °F 88% 30.02 in 10.0 mi NE 10.4 mph - N/A   Overcast
2:31 AM 53.6 °F 48.2 °F 82% 30.01 in 10.0 mi ENE 4.6 mph - N/A   Mostly Cloudy
2:51 AM 51.8 °F 48.2 °F 88% 30.01 in 10.0 mi NE 5.8 mph - N/A   Scattered Clouds
3:11 AM 50.0 °F 48.2 °F 94% 30.01 in 10.0 mi NE 3.5 mph - N/A   Clear
3:31 AM 50.0 °F 48.2 °F 94% 30.01 in 10.0 mi ENE 3.5 mph - N/A   Scattered Clouds
3:51 AM 50.0 °F 48.2 °F 94% 30.00 in 10.0 mi NNE 3.5 mph - N/A   Mostly Cloudy
4:11 AM 51.8 °F 50.0 °F 94% 30.01 in 10.0 mi North 3.5 mph - N/A   Overcast
4:31 AM 51.8 °F 50.0 °F 94% 30.01 in 10.0 mi Calm Calm - N/A   Overcast
4:51 AM 51.8 °F 50.0 °F 94% 30.01 in 10.0 mi North 4.6 mph - N/A   Overcast
5:11 AM 51.8 °F 50.0 °F 94% 30.01 in 10.0 mi NNE 10.4 mph - N/A   Overcast
5:31 AM 51.8 °F 48.2 °F 88% 30.01 in 10.0 mi NNE 9.2 mph - N/A   Overcast
5:51 AM 51.8 °F 48.2 °F 88% 30.01 in 10.0 mi NNE 11.5 mph - N/A   Overcast
6:11 AM 51.8 °F 48.2 °F 88% 30.02 in 10.0 mi NNE 10.4 mph - N/A   Overcast
6:31 AM 51.8 °F 48.2 °F 88% 30.02 in 10.0 mi North 10.4 mph - N/A   Overcast
6:51 AM 51.8 °F 48.2 °F 88% 30.02 in 10.0 mi NNE 9.2 mph - N/A   Overcast
7:11 AM 51.8 °F 48.2 °F 88% 30.03 in 10.0 mi NNE 9.2 mph - N/A   Overcast
7:31 AM 51.8 °F 50.0 °F 94% 30.03 in 10.0 mi North 10.4 mph - N/A   Overcast
7:51 AM 51.8 °F 50.0 °F 94% 30.03 in 10.0 mi NNE 12.7 mph - N/A   Overcast
8:11 AM 51.8 °F 48.2 °F 88% 30.03 in 10.0 mi NE 9.2 mph - N/A   Overcast
8:31 AM 53.6 °F 48.2 °F 82% 30.03 in 10.0 mi NE 9.2 mph - N/A   Overcast
8:51 AM 53.6 °F 48.2 °F 82% 30.03 in 10.0 mi NNE 8.1 mph - N/A   Overcast
9:11 AM 53.6 °F 48.2 °F 82% 30.03 in 10.0 mi NNE 6.9 mph - N/A   Overcast
9:31 AM 55.4 °F 48.2 °F 77% 30.03 in 10.0 mi NE 9.2 mph - N/A   Overcast
9:51 AM 55.4 °F 48.2 °F 77% 30.04 in 10.0 mi NNE 6.9 mph - N/A   Overcast
10:11 AM 55.4 °F 48.2 °F 77% 30.03 in 10.0 mi NE 6.9 mph - N/A   Overcast
10:31 AM 57.2 °F 50.0 °F 77% 30.03 in 10.0 mi NE 5.8 mph - N/A   Overcast
10:51 AM 57.2 °F 48.2 °F 72% 30.03 in 10.0 mi NNE 6.9 mph - N/A   Overcast
11:11 AM 57.2 °F 48.2 °F 72% 30.03 in 10.0 mi NNE 8.1 mph - N/A   Overcast
11:31 AM 57.2 °F 48.2 °F 72% 30.04 in 10.0 mi ENE 5.8 mph - N/A   Overcast
11:51 AM 57.2 °F 48.2 °F 72% 30.04 in 10.0 mi East 4.6 mph - N/A   Overcast
12:11 PM 57.2 °F 50.0 °F 77% 30.04 in 10.0 mi ENE 3.5 mph - N/A   Overcast
12:31 PM 59.0 °F 48.2 °F 67% 30.04 in 10.0 mi Calm Calm - N/A   Overcast
12:51 PM 59.0 °F 48.2 °F 67% 30.04 in 10.0 mi Calm Calm - N/A   Overcast
1:11 PM 60.8 °F 48.2 °F 63% 30.04 in 10.0 mi Calm Calm - N/A   Overcast
1:31 PM 60.8 °F 48.2 °F 63% 30.03 in 10.0 mi Calm Calm - N/A   Overcast
1:51 PM 60.8 °F 50.0 °F 68% 30.03 in 10.0 mi East 8.1 mph - N/A   Overcast
2:11 PM 60.8 °F 50.0 °F 68% 30.04 in 10.0 mi East 6.9 mph - N/A   Overcast
2:31 PM 60.8 °F 50.0 °F 68% 30.03 in 10.0 mi North 5.8 mph - N/A   Overcast
2:51 PM 60.8 °F 50.0 °F 68% 30.03 in 10.0 mi NE 5.8 mph - N/A   Overcast
3:11 PM 60.8 °F 50.0 °F 68% 30.03 in 10.0 mi ENE 4.6 mph - N/A   Overcast
3:31 PM 60.8 °F 50.0 °F 68% 30.03 in 10.0 mi ENE 4.6 mph - N/A   Overcast
3:51 PM 60.8 °F 51.8 °F 72% 30.02 in 10.0 mi ENE 5.8 mph - N/A   Overcast
4:11 PM 60.8 °F 51.8 °F 72% 30.02 in 10.0 mi NE 4.6 mph - N/A   Overcast
4:31 PM 60.8 °F 50.0 °F 68% 30.03 in 10.0 mi NNE 6.9 mph - N/A   Overcast
4:51 PM 62.6 °F 50.0 °F 63% 30.03 in 10.0 mi NNE 8.1 mph - N/A   Overcast
5:11 PM 62.6 °F 48.2 °F 59% 30.02 in 10.0 mi NNE 6.9 mph - N/A   Overcast
5:31 PM 62.6 °F 50.0 °F 63% 30.02 in 10.0 mi ENE 9.2 mph - N/A   Overcast
5:51 PM 60.8 °F 51.8 °F 72% 30.02 in 10.0 mi East 6.9 mph - N/A   Overcast
6:11 PM 62.6 °F 51.8 °F 68% 30.02 in 10.0 mi East 9.2 mph - N/A   Overcast
6:31 PM 60.8 °F 51.8 °F 72% 30.02 in 10.0 mi East 6.9 mph - N/A   Overcast
6:51 PM 60.8 °F 50.0 °F 68% 30.03 in 10.0 mi East 5.8 mph - N/A   Overcast
7:11 PM 60.8 °F 48.2 °F 63% 30.03 in 10.0 mi East 5.8 mph - N/A   Overcast
7:31 PM 60.8 °F 48.2 °F 63% 30.03 in 10.0 mi East 9.2 mph - N/A   Overcast
7:51 PM 60.8 °F 50.0 °F 68% 30.04 in 10.0 mi East 6.9 mph - N/A   Overcast
8:11 PM 59.0 °F 48.2 °F 67% 30.04 in 10.0 mi ENE 6.9 mph - N/A   Overcast
8:31 PM 59.0 °F 50.0 °F 72% 30.04 in 10.0 mi East 6.9 mph - N/A   Overcast
8:51 PM 57.2 °F 50.0 °F 77% 30.04 in 10.0 mi East 9.2 mph - N/A   Overcast
9:11 PM 57.2 °F 51.8 °F 82% 30.04 in 10.0 mi ESE 8.1 mph - N/A   Overcast
9:31 PM 57.2 °F 51.8 °F 82% 30.04 in 10.0 mi ESE 9.2 mph - N/A   Overcast
9:51 PM 57.2 °F 50.0 °F 77% 30.05 in 10.0 mi ESE 8.1 mph - N/A   Overcast
10:11 PM 55.4 °F 50.0 °F 82% 30.05 in 10.0 mi ESE 8.1 mph - N/A   Overcast
10:31 PM 55.4 °F 50.0 °F 82% 30.06 in 10.0 mi ESE 6.9 mph - N/A   Overcast
10:51 PM 53.6 °F 50.0 °F 88% 30.06 in 10.0 mi East 5.8 mph - N/A   Scattered Clouds
11:11 PM 53.6 °F 48.2 °F 82% 30.06 in 10.0 mi East 5.8 mph - N/A   Clear
11:31 PM 51.8 °F 48.2 °F 88% 30.06 in 10.0 mi Calm Calm - N/A   Clear
11:51 PM 51.8 °F 50.0 °F 94% 30.05 in 10.0 mi Calm Calm - N/A   Clear